Brenda B — WDC7783 — position and weather

sailwx.info

Track history (hours):
 
Tides and Currents Weather Stations Pressure Air Temp Water Temp Dewpoint Dewpoint Depression Visibility Wind Speed Wind Dir Waves Ship Positions

Brenda B

Owner: B & J CORP., LAKE AUTHUR, LA. More information available from US FCC via Universal Licensing System and Coast Guard Vessel Documentation Center.

Last reported at 2018-Jan-05 20:34 UTC. Time now 2018-Jan-20 13:04 UTC.
Position N 29°51' W 092°20'.
Warning: this ship's position is 14 days out of date.

Length 21 m; draft 6 m.

Type: Towing. MMSI: 367076910.

Date/timePositionNaut miles runAvg speedWind from/ knotsBaromVisibWave heightAir tempDewpointWater temp
2018-Jan-05 20:34N 29°51' W 092°20'0 6.3
2018-Jan-05 20:30N 29°50' W 092°20'3 5.6
2018-Jan-05 20:00N 29°49' W 092°17'2 4.1
2018-Jan-05 19:30N 29°47' W 092°16'2 4.5
2018-Jan-05 19:00N 29°45' W 092°17'2 4.8
2018-Jan-05 18:30N 29°45' W 092°20'1 2.0
2018-Jan-05 18:00N 29°45' W 092°21'0 0.1
2018-Jan-05 17:30N 29°45' W 092°21'0 0.0
2018-Jan-05 17:00N 29°45' W 092°21'0 0.0
2018-Jan-05 16:30N 29°45' W 092°21'0 0.0
2018-Jan-05 16:00N 29°45' W 092°21'0 0.0
2018-Jan-05 15:30N 29°45' W 092°21'1 1.1
2018-Jan-05 15:00N 29°44' W 092°21'0 0.8
2018-Jan-05 14:23N 29°44' W 092°22'0 0.3
2018-Jan-05 13:02N 29°44' W 092°21'0 3.4
2018-Jan-05 13:00N 29°44' W 092°21'2 3.1
2018-Jan-05 12:30N 29°45' W 092°20'0 0.1
2018-Jan-05 12:00N 29°45' W 092°20'0 0.0
2018-Jan-05 11:30N 29°45' W 092°20'0 0.0
2018-Jan-05 11:00N 29°45' W 092°20'0 0.0
2018-Jan-05 10:30N 29°45' W 092°20'0 0.0
2018-Jan-05 10:00N 29°45' W 092°20'0 0.0
2018-Jan-05 09:30N 29°45' W 092°20'0 0.0
2018-Jan-05 09:00N 29°45' W 092°20'0 0.0
2018-Jan-05 08:30N 29°45' W 092°20'0 0.0
2018-Jan-05 08:00N 29°45' W 092°20'0 0.0
2018-Jan-05 07:30N 29°45' W 092°20'0 0.0
2018-Jan-05 07:00N 29°45' W 092°20'0 0.0
2018-Jan-05 06:30N 29°45' W 092°20'0 0.0
2018-Jan-05 06:00N 29°45' W 092°20'0 0.0
2018-Jan-05 05:30N 29°45' W 092°20'0 0.0
2018-Jan-05 05:00N 29°45' W 092°20'0 0.0
2018-Jan-05 04:30N 29°45' W 092°20'0 0.0
2018-Jan-05 04:00N 29°45' W 092°20'0 0.0
2018-Jan-05 03:30N 29°45' W 092°20'0 0.0
2018-Jan-05 03:00N 29°45' W 092°20'2 4.6
2018-Jan-05 02:30N 29°45' W 092°17'2 4.2
2018-Jan-05 02:00N 29°47' W 092°16'2 4.0
2018-Jan-05 01:30N 29°49' W 092°17'3 5.8
2018-Jan-05 01:00N 29°50' W 092°20'  
Track history (hours):
 
Tides and Currents Weather Stations Pressure Air Temp Water Temp Dewpoint Dewpoint Depression Visibility Wind Speed Wind Dir Waves Ship Positions

Brenda B

Owner: B & J CORP., LAKE AUTHUR, LA. More information available from US FCC via Universal Licensing System and Coast Guard Vessel Documentation Center.

Last reported at 2018-Jan-05 20:34 UTC. Time now 2018-Jan-20 13:04 UTC.
Position N 29°51' W 092°20'.
Warning: this ship's position is 14 days out of date.

Length 21 m; draft 6 m.

Type: Towing. MMSI: 367076910.

Date/timePositionNaut miles runAvg speedWind from/ knotsBaromVisibWave heightAir tempDewpointWater temp
2018-Jan-05 20:34N 29°51' W 092°20'0 6.3
2018-Jan-05 20:30N 29°50' W 092°20'3 5.6
2018-Jan-05 20:00N 29°49' W 092°17'2 4.1
2018-Jan-05 19:30N 29°47' W 092°16'2 4.5
2018-Jan-05 19:00N 29°45' W 092°17'2 4.8
2018-Jan-05 18:30N 29°45' W 092°20'1 2.0
2018-Jan-05 18:00N 29°45' W 092°21'0 0.1
2018-Jan-05 17:30N 29°45' W 092°21'0 0.0
2018-Jan-05 17:00N 29°45' W 092°21'0 0.0
2018-Jan-05 16:30N 29°45' W 092°21'0 0.0
2018-Jan-05 16:00N 29°45' W 092°21'0 0.0
2018-Jan-05 15:30N 29°45' W 092°21'1 1.1
2018-Jan-05 15:00N 29°44' W 092°21'0 0.8
2018-Jan-05 14:23N 29°44' W 092°22'0 0.3
2018-Jan-05 13:02N 29°44' W 092°21'0 3.4
2018-Jan-05 13:00N 29°44' W 092°21'2 3.1
2018-Jan-05 12:30N 29°45' W 092°20'0 0.1
2018-Jan-05 12:00N 29°45' W 092°20'0 0.0
2018-Jan-05 11:30N 29°45' W 092°20'0 0.0
2018-Jan-05 11:00N 29°45' W 092°20'0 0.0
2018-Jan-05 10:30N 29°45' W 092°20'0 0.0
2018-Jan-05 10:00N 29°45' W 092°20'0 0.0
2018-Jan-05 09:30N 29°45' W 092°20'0 0.0
2018-Jan-05 09:00N 29°45' W 092°20'0 0.0
2018-Jan-05 08:30N 29°45' W 092°20'0 0.0
2018-Jan-05 08:00N 29°45' W 092°20'0 0.0
2018-Jan-05 07:30N 29°45' W 092°20'0 0.0
2018-Jan-05 07:00N 29°45' W 092°20'0 0.0
2018-Jan-05 06:30N 29°45' W 092°20'0 0.0
2018-Jan-05 06:00N 29°45' W 092°20'0 0.0
2018-Jan-05 05:30N 29°45' W 092°20'0 0.0
2018-Jan-05 05:00N 29°45' W 092°20'0 0.0
2018-Jan-05 04:30N 29°45' W 092°20'0 0.0
2018-Jan-05 04:00N 29°45' W 092°20'0 0.0
2018-Jan-05 03:30N 29°45' W 092°20'0 0.0
2018-Jan-05 03:00N 29°45' W 092°20'2 4.6
2018-Jan-05 02:30N 29°45' W 092°17'2 4.2
2018-Jan-05 02:00N 29°47' W 092°16'2 4.0
2018-Jan-05 01:30N 29°49' W 092°17'3 5.8
2018-Jan-05 01:00N 29°50' W 092°20'  

Dump ship's entire track history